PANCPAJN

Guest
Details From PANC - Ted Stevens Anchorage Intl
To PAJN - Juneau Intl
Flight Number -
Tags generated
Created
Modified
Stats Distance 497 nm / 920 km
Max Altitude 35,000 ft / 10,668 m
Waypoints 7
Social Downloads 1
Likes 0
Share VATSIM

Download

Looking for another format? Having issues loading an existing format? Contact us
Advertisement - Login to hide

Notes

Basic altitude profile: - Ascent Rate: 2500ft/min - Ascent Speed: 250kts - Cruise Altitude: 11000ft - Cruise Speed: 290kts - Descent Rate: 1500ft/min - Descent Speed: 250kts Options: - Use NATs: yes - Use PACOTS: yes - Use low airways: yes - Use high airways: yes

Route

PANC JOH J501 YAK J541 FAKES PAJN

ID Type Via Altitude (ft/m) Position (lat/lon) Dist (leg/tot) Name
O PANC APT - 0 / 0 61.17411 / -149.99598 - / 0 nm Ted Stevens Anchorage Intl
JOH DME - 35,000 / 10,668 60.48095 / -146.59934 107 / 107 nm JOHNSTONE POINT VOR-DME
KATAT FIX J501 (AWY-HI) 35,000 / 10,668 60.25810 / -144.70521 57 / 165 nm
YAK VOR J501 (AWY-HI) 35,000 / 10,668 59.51083 / -139.64814 158 / 324 nm YAKUTAT VOR-DME
YISPO FIX J541 (AWY-HI) 33,300 / 10,150 59.37515 / -139.16133 16 / 341 nm
FAKES FIX J541 (AWY-HI) 23,000 / 7,010 58.98241 / -137.80800 47 / 389 nm
O PAJN APT - 0 / 0 58.35496 / -134.57628 107 / 496 nm Juneau Intl

Altitude Profile

Advertisement - Login to hide

Weather


0- 5 10 15 20 25 30 35+ Temperature / °C

Clouds and Precipitation
Forecast for 2018-08-17 18:00 UTC. Updated 6 hours ago

Ground ~20,000 ft ~40,000 ft Winds

PANC

Details ICAO PANC (ANC)
Name Ted Stevens Anchorage Airport
Region USA (Alaska)
Timezone America/Anchorage (UTC-8.0)
Stats Elevation 147 ft / 45 m (AMSL)
Location 61.174400° -149.998000°
Runways 3
Magnetic Variation 15.991° E

METAR

PANC 172053Z 29008KT 10SM SCT029 BKN055 BKN070 BKN140 16/09 A3018

Decode

TAF

TAF AMD PANC 172056Z 1721/1824 24008KT P6SM SCT040 BKN070= TAF AMD PAGK 172057Z 1721/1818 17011KT P6SM VCSH SCT060 BKN100 FM172200 17012G20KT P6SM SCT070 FM180600 17010KT P6SM FEW080 SCT200

Decode

Departure Runways

ID Width Length Bearing (true/mag) Surface Threshold Overrun Markings Lighting
07L 151 ft / 46 m 10,610 ft / 3,234 m 89.88° / 73.89° ASPHALT 0 ft / 0 m 400 ft / 122 m PREC-APP CENTERLINE EDGE THRESHOLD MALSR TDZ REIL-OMNI
07R 200 ft / 61 m 12,413 ft / 3,784 m 89.81° / 73.82° ASPHALT 0 ft / 0 m 0 ft / 0 m PREC-APP CENTERLINE EDGE THRESHOLD ALSF-II TDZ
15 151 ft / 46 m 10,972 ft / 3,344 m 164.90° / 148.91° ASPHALT 200 ft / 61 m 0 ft / 0 m PREC-APP CENTERLINE EDGE THRESHOLD ODALS TDZ REIL-OMNI
25L 200 ft / 61 m 12,413 ft / 3,784 m 269.88° / 253.89° ASPHALT 0 ft / 0 m 210 ft / 64 m PREC-APP CENTERLINE EDGE THRESHOLD ALSF-II TDZ REIL-OMNI
25R 151 ft / 46 m 10,610 ft / 3,234 m 269.94° / 253.95° ASPHALT 0 ft / 0 m 404 ft / 123 m PREC-APP CENTERLINE EDGE THRESHOLD MALSR TDZ REIL-OMNI
33 151 ft / 46 m 10,972 ft / 3,344 m 344.91° / 328.92° ASPHALT 299 ft / 91 m 584 ft / 178 m PREC-APP CENTERLINE EDGE THRESHOLD ODALS TDZ REIL-OMNI

PAJN

Details ICAO PAJN (JNU)
Name Juneau Intl
Region USA (Alaska)
Timezone America/Juneau (UTC-8.0)
Stats Elevation 20 ft / 6 m (AMSL)
Location 58.355000° -134.576000°
Runways 1
Magnetic Variation 18.952° E

METAR

PAJN 172053Z 00000KT 10SM FEW034 BKN065 BKN200 16/10 A3020

Decode

TAF

TAF PAJN 171720Z 1718/1818 VRB03KT P6SM VCSH FEW003 SCT020 OVC050 FM171900 25005KT P6SM SCT020 BKN050 FM172300 26007KT P6SM SCT050 FM180400 VRB04KT P6SM SCT050 FM180900 00000KT P6SM BCFG SCT005 SCT020

Decode

Destination Runways

ID Width Length Bearing (true/mag) Surface Threshold Overrun Markings Lighting
08 151 ft / 46 m 8,867 ft / 2,703 m 104.87° / 85.92° ASPHALT 220 ft / 67 m 0 ft / 0 m APP CENTERLINE EDGE THRESHOLD MALSF
26 151 ft / 46 m 8,867 ft / 2,703 m 284.90° / 265.95° ASPHALT 217 ft / 66 m 0 ft / 0 m APP CENTERLINE EDGE THRESHOLD MALS

Approach Navaids

Runway Type Ident Frequency Range Bearing (true/mag) Slope Elevation
08 LOC-LOC IJDL 109.90 MHz 18 nm / 33 km 84.92° / 65.97 ° - 21 ft / 6 m (AMSL)
08 DME IJDL 109.90 MHz 18 nm / 33 km - - 175 ft / 53 m (AMSL)

Popular Alternatives